Llantrisant, United Kingdom
Current Conditions -  °F | °C
As of 11:50 PM on Monday 20 Oct 2014 (Local Time) from EGFF Reporting Station
Overcast Overcast  
Wind Chill: 57°   Ceiling: 1400
Heat Index: 57°   Visibility: 6mi
Dew Point: 52°   Wind: 16mph
Humidity: 82%   Direction: 230°SW
Pressure: 29.83"   Gusts: NA
Location:  51.54°N, 3.37°W
Report Text: EGFF 202250Z AUTO 23014KT 9999 BKN014 OVC031 14/11 Q1010
Loading
Personal Weather Stations






























Interactive Weather Map
Tropical Storm Tracking
New forecast layout! Learn more

10-Day Weather Forecast

Advertisements
Track Severe Weather on mobile